createdAt,value
2022-10-07T00:01:14.167Z,5.75
2022-10-07T00:03:42.521Z,6.97
2022-10-07T00:06:17.587Z,4.13
2022-10-07T00:08:49.590Z,6.38
2022-10-07T00:13:56.920Z,5.82
2022-10-07T00:16:27.907Z,10.40
2022-10-07T00:18:58.708Z,3.33
2022-10-07T00:21:30.436Z,5.50
2022-10-07T00:23:59.421Z,5.13
2022-10-07T00:26:29.920Z,2.92
2022-10-07T00:28:58.589Z,4.27
2022-10-07T00:31:29.197Z,3.85
2022-10-07T00:33:57.811Z,5.93
2022-10-07T00:36:28.706Z,4.57
2022-10-07T00:39:04.206Z,4.55
2022-10-07T00:41:39.463Z,7.78
2022-10-07T00:44:34.371Z,4.65
2022-10-07T00:47:11.047Z,7.57
2022-10-07T00:49:46.227Z,8.75
2022-10-07T00:52:15.853Z,5.25
2022-10-07T00:54:44.977Z,7.57
2022-10-07T00:57:13.588Z,6.35
2022-10-07T00:59:42.596Z,7.57
2022-10-07T01:02:11.172Z,7.80
2022-10-07T01:04:40.055Z,8.70
2022-10-07T01:07:07.958Z,12.38
2022-10-07T01:09:36.139Z,7.90
2022-10-07T01:12:16.495Z,6.60
2022-10-07T01:14:56.934Z,8.60
2022-10-07T01:17:29.053Z,10.50
2022-10-07T01:20:16.611Z,4.32
2022-10-07T01:23:08.991Z,4.88
2022-10-07T01:25:59.530Z,5.55
2022-10-07T01:28:35.086Z,5.45
2022-10-07T01:31:07.454Z,3.42
2022-10-07T01:33:38.933Z,4.57
2022-10-07T01:38:46.419Z,7.07
2022-10-07T01:41:17.152Z,4.60
2022-10-07T01:43:47.317Z,6.72
2022-10-07T01:46:19.624Z,5.57
2022-10-07T01:48:48.399Z,5.60
2022-10-07T01:55:58.994Z,7.78
2022-10-07T01:58:51.753Z,7.38
2022-10-07T02:01:30.919Z,5.43
2022-10-07T02:04:38.406Z,5.13
2022-10-07T02:07:27.293Z,3.85
2022-10-07T02:10:16.431Z,5.00
2022-10-07T02:12:52.422Z,5.90
2022-10-07T02:15:24.595Z,3.40
2022-10-07T02:17:59.338Z,4.47
2022-10-07T02:20:33.168Z,4.07
2022-10-07T02:23:03.530Z,3.92
2022-10-07T02:25:37.997Z,5.60
2022-10-07T02:28:12.449Z,3.63
2022-10-07T02:30:44.150Z,3.55
2022-10-07T02:33:13.490Z,4.20
2022-10-07T02:35:53.370Z,3.47
2022-10-07T02:38:22.360Z,7.25
2022-10-07T02:40:55.748Z,4.97
2022-10-07T02:43:37.321Z,5.25
2022-10-07T02:46:17.759Z,5.82
2022-10-07T02:48:51.995Z,6.45
2022-10-07T02:51:24.547Z,8.05
2022-10-07T02:53:55.826Z,5.18
2022-10-07T02:56:26.870Z,9.27
2022-10-07T02:58:55.799Z,5.60
2022-10-07T03:01:31.389Z,8.15
2022-10-07T03:03:59.893Z,7.72
2022-10-07T03:06:30.676Z,8.02
2022-10-07T03:09:01.736Z,8.60
2022-10-07T03:11:32.675Z,6.80
2022-10-07T03:14:00.602Z,7.70
2022-10-07T03:16:28.662Z,11.18
2022-10-07T03:18:56.703Z,8.93
2022-10-07T03:21:28.688Z,5.88
2022-10-07T03:23:59.500Z,6.37
2022-10-07T03:26:31.376Z,11.43
2022-10-07T03:29:01.268Z,7.38
2022-10-07T03:31:30.487Z,8.73
2022-10-07T03:34:00.722Z,6.70
2022-10-07T03:36:29.304Z,7.75
2022-10-07T03:38:57.311Z,10.18
2022-10-07T03:41:26.148Z,14.07
2022-10-07T03:44:03.185Z,12.10
2022-10-07T03:46:33.827Z,15.23
2022-10-07T03:49:02.237Z,13.90
2022-10-07T03:51:31.159Z,11.63
2022-10-07T03:54:00.200Z,11.13
2022-10-07T03:56:35.886Z,12.43
2022-10-07T03:59:04.116Z,11.73
2022-10-07T04:01:33.069Z,10.38
2022-10-07T04:04:02.021Z,16.40
2022-10-07T04:06:34.479Z,13.05
2022-10-07T04:09:06.433Z,11.00
2022-10-07T04:11:35.577Z,10.65
2022-10-07T04:14:03.550Z,12.48
2022-10-07T04:16:35.849Z,16.80
2022-10-07T04:19:07.215Z,13.85
2022-10-07T04:21:35.334Z,10.23
2022-10-07T04:24:03.335Z,11.73
2022-10-07T04:26:32.088Z,9.73
2022-10-07T04:33:42.246Z,9.40
2022-10-07T04:36:14.195Z,6.75
2022-10-07T04:38:51.646Z,8.02
2022-10-07T04:41:25.002Z,6.32
2022-10-07T04:43:57.577Z,5.85
2022-10-07T04:46:29.438Z,6.78
2022-10-07T04:49:17.543Z,7.35
2022-10-07T04:51:45.614Z,6.82
2022-10-07T04:54:14.563Z,11.43
2022-10-07T04:56:50.979Z,7.45
2022-10-07T04:59:23.760Z,8.77
2022-10-07T05:04:36.997Z,10.45
2022-10-07T05:07:05.714Z,9.90
2022-10-07T05:09:35.676Z,8.80
2022-10-07T05:12:03.698Z,9.68
2022-10-07T05:14:33.864Z,13.05
2022-10-07T05:17:02.909Z,5.35
2022-10-07T05:19:44.923Z,5.17
2022-10-07T05:22:12.908Z,6.47
2022-10-07T05:24:40.810Z,11.65
2022-10-07T05:27:08.746Z,10.30
2022-10-07T05:29:37.091Z,7.35
2022-10-07T05:32:05.448Z,12.20
2022-10-07T05:34:34.574Z,8.38
2022-10-07T05:37:03.287Z,9.98
2022-10-07T05:39:31.489Z,7.40
2022-10-07T05:42:06.725Z,10.48
2022-10-07T05:44:41.185Z,11.65
2022-10-07T05:47:09.124Z,6.90
2022-10-07T05:49:37.773Z,6.50
2022-10-07T05:52:06.823Z,7.50
2022-10-07T05:54:35.882Z,10.55
2022-10-07T05:57:04.962Z,13.18
2022-10-07T05:59:34.071Z,10.88
2022-10-07T06:02:02.041Z,12.35
2022-10-07T06:04:30.599Z,9.32
2022-10-07T06:06:58.479Z,13.45
2022-10-07T06:09:47.693Z,13.27
2022-10-07T06:12:36.844Z,7.43
2022-10-07T06:15:10.932Z,7.50
2022-10-07T06:17:46.254Z,10.77
2022-10-07T06:20:18.312Z,6.82
2022-10-07T06:22:47.023Z,9.85
2022-10-07T06:25:16.772Z,11.60
2022-10-07T06:27:51.142Z,7.40
2022-10-07T06:30:21.919Z,9.75
2022-10-07T06:32:50.987Z,8.48
2022-10-07T06:35:19.228Z,10.73
2022-10-07T06:37:48.886Z,8.13
2022-10-07T06:40:17.635Z,11.27
2022-10-07T06:42:45.743Z,8.50
2022-10-07T06:45:26.423Z,8.77
2022-10-07T06:47:58.247Z,6.97
2022-10-07T06:50:27.150Z,7.95
2022-10-07T06:52:55.211Z,7.63
2022-10-07T06:55:23.332Z,8.63
2022-10-07T06:57:51.249Z,7.35
2022-10-07T07:00:20.965Z,7.50
2022-10-07T07:02:51.395Z,5.88
2022-10-07T07:05:19.435Z,10.00
2022-10-07T07:07:48.980Z,6.90
2022-10-07T07:10:17.786Z,5.90
2022-10-07T07:12:49.116Z,6.30
2022-10-07T07:15:18.222Z,7.65
2022-10-07T07:17:46.664Z,10.10
2022-10-07T07:20:15.744Z,10.52
2022-10-07T07:22:44.455Z,5.57
2022-10-07T07:25:12.915Z,11.13
2022-10-07T07:27:40.823Z,9.02
2022-10-07T07:30:10.750Z,4.25
2022-10-07T07:32:38.867Z,7.95
2022-10-07T07:35:08.150Z,7.25
2022-10-07T07:37:37.134Z,9.43
2022-10-07T07:40:05.648Z,11.15
2022-10-07T07:42:35.159Z,12.13
2022-10-07T07:45:03.230Z,8.15
2022-10-07T07:47:33.108Z,6.13
2022-10-07T07:50:01.163Z,10.00
2022-10-07T07:52:33.958Z,8.77
2022-10-07T07:55:04.331Z,10.20
2022-10-07T07:57:32.549Z,10.85
2022-10-07T08:00:08.567Z,9.00
2022-10-07T08:02:46.487Z,11.70
2022-10-07T08:05:23.522Z,9.88
2022-10-07T08:07:53.655Z,10.98
2022-10-07T08:10:23.432Z,9.05
2022-10-07T08:12:51.372Z,8.98
2022-10-07T08:15:19.603Z,9.25
2022-10-07T08:17:48.274Z,7.75
2022-10-07T08:20:16.514Z,14.88
2022-10-07T08:22:46.961Z,10.25
2022-10-07T08:25:16.294Z,9.38
2022-10-07T08:27:45.360Z,9.65
2022-10-07T08:30:13.810Z,9.07
2022-10-07T08:32:42.183Z,10.23
2022-10-07T08:35:10.214Z,9.10
2022-10-07T08:37:38.045Z,9.93
2022-10-07T08:40:06.403Z,9.48
2022-10-07T08:42:39.940Z,9.35
2022-10-07T08:45:11.530Z,11.75
2022-10-07T08:47:50.519Z,9.60
2022-10-07T08:50:53.888Z,7.47
2022-10-07T08:53:30.824Z,9.80
2022-10-07T08:56:04.858Z,13.48
2022-10-07T08:59:04.655Z,11.95
2022-10-07T09:02:04.893Z,9.95
2022-10-07T09:04:47.734Z,10.40
2022-10-07T09:07:38.004Z,11.20
2022-10-07T09:10:17.278Z,12.75
2022-10-07T09:12:53.297Z,13.07
2022-10-07T09:15:49.949Z,12.05
2022-10-07T09:18:40.327Z,9.30
2022-10-07T09:21:24.536Z,12.55
2022-10-07T09:23:57.375Z,16.50
2022-10-07T09:26:28.441Z,10.18
2022-10-07T09:28:56.602Z,7.88
2022-10-07T09:31:26.242Z,9.32
2022-10-07T09:33:55.176Z,9.43
2022-10-07T09:36:23.037Z,11.98
2022-10-07T09:38:53.539Z,12.45
2022-10-07T09:41:33.164Z,22.25
2022-10-07T09:44:16.140Z,12.80
2022-10-07T09:46:52.239Z,10.52
2022-10-07T09:49:36.027Z,9.30
2022-10-07T09:52:15.475Z,11.23
2022-10-07T09:54:45.349Z,12.68
2022-10-07T09:57:36.976Z,15.63
2022-10-07T10:02:47.372Z,9.10
2022-10-07T10:05:25.112Z,7.50
2022-10-07T10:08:00.067Z,11.30
2022-10-07T10:10:33.793Z,9.65
2022-10-07T10:13:03.967Z,11.35
2022-10-07T10:15:42.412Z,9.68
2022-10-07T10:18:42.308Z,9.95
2022-10-07T10:21:20.777Z,13.20
2022-10-07T10:23:51.931Z,11.65
2022-10-07T10:26:50.771Z,11.60
2022-10-07T10:29:43.838Z,8.77
2022-10-07T10:32:49.661Z,12.32
2022-10-07T10:35:26.961Z,15.05
2022-10-07T10:38:20.125Z,10.82
2022-10-07T10:41:04.931Z,10.88
2022-10-07T10:44:08.850Z,9.68
2022-10-07T10:46:53.018Z,10.80
2022-10-07T10:49:31.354Z,11.07
2022-10-07T10:52:39.393Z,8.40
2022-10-07T10:55:47.220Z,13.13
2022-10-07T10:58:39.724Z,13.82
2022-10-07T11:01:27.869Z,11.23
2022-10-07T11:04:14.846Z,8.55
2022-10-07T11:06:47.790Z,9.32
2022-10-07T11:09:34.163Z,14.73
2022-10-07T11:12:07.532Z,7.00
2022-10-07T11:14:55.741Z,6.90
2022-10-07T11:17:31.910Z,8.35
2022-10-07T11:20:31.041Z,7.00
2022-10-07T11:23:04.059Z,6.72
2022-10-07T11:25:48.060Z,7.88
2022-10-07T11:28:28.749Z,7.28
2022-10-07T11:31:09.508Z,8.50
2022-10-07T11:33:48.459Z,8.00
2022-10-07T11:39:17.916Z,7.20
2022-10-07T11:42:02.139Z,5.93
2022-10-07T11:44:49.001Z,4.90
2022-10-07T11:47:21.417Z,10.23
2022-10-07T11:49:59.979Z,7.30
2022-10-07T11:52:38.140Z,6.95
2022-10-07T11:55:23.059Z,5.47
2022-10-07T11:58:00.234Z,4.47
2022-10-07T12:00:33.964Z,10.13
2022-10-07T12:03:38.494Z,6.78
2022-10-07T12:06:13.403Z,11.52
2022-10-07T12:15:30.522Z,6.60
2022-10-07T12:18:07.610Z,6.55
2022-10-07T12:20:51.426Z,7.22
2022-10-07T12:23:29.597Z,8.63
2022-10-07T12:26:26.741Z,5.90
2022-10-07T12:28:57.127Z,5.63
2022-10-07T12:31:27.584Z,5.40
2022-10-07T12:34:09.648Z,6.73
2022-10-07T12:36:43.994Z,5.32
2022-10-07T12:39:12.985Z,6.85
2022-10-07T12:41:41.753Z,10.57
2022-10-07T12:44:40.667Z,16.65
2022-10-07T12:47:15.100Z,7.30
2022-10-07T12:50:13.946Z,6.93
2022-10-07T12:52:57.420Z,7.50
2022-10-07T13:38:40.038Z,8.50
2022-10-07T13:51:50.764Z,9.17
2022-10-07T13:54:27.263Z,6.28
2022-10-07T13:56:56.918Z,8.88
2022-10-07T13:59:27.630Z,8.48
2022-10-07T14:02:04.808Z,8.85
2022-10-07T14:04:36.800Z,9.35
2022-10-07T14:07:14.789Z,7.35
2022-10-07T14:10:01.843Z,10.50
2022-10-07T14:12:57.151Z,8.27
2022-10-07T14:18:28.859Z,6.40
2022-10-07T14:24:35.908Z,11.60
2022-10-07T14:27:03.843Z,9.35
2022-10-07T14:29:39.241Z,6.57
2022-10-07T14:32:38.153Z,5.82
2022-10-07T14:35:20.040Z,8.25
2022-10-07T14:37:48.913Z,8.90
2022-10-07T14:40:19.552Z,10.75
2022-10-07T14:42:48.840Z,7.88
2022-10-07T14:45:19.040Z,8.27
2022-10-07T14:47:47.414Z,7.03
2022-10-07T14:50:15.609Z,7.13
2022-10-07T14:52:50.563Z,6.32
2022-10-07T14:55:37.011Z,9.45
2022-10-07T14:58:05.281Z,8.68
2022-10-07T15:00:37.407Z,4.78
2022-10-07T15:03:10.874Z,7.57
2022-10-07T15:05:38.923Z,7.35
2022-10-07T15:08:07.090Z,9.90
2022-10-07T15:10:35.096Z,11.02
2022-10-07T15:13:06.872Z,9.02
2022-10-07T15:15:43.444Z,7.15
2022-10-07T15:18:12.810Z,8.23
2022-10-07T15:20:41.890Z,6.13
2022-10-07T15:23:10.434Z,7.07
2022-10-07T15:25:43.418Z,4.97
2022-10-07T15:28:11.599Z,5.05
2022-10-07T15:30:39.785Z,7.82
2022-10-07T15:33:07.875Z,6.97
2022-10-07T15:35:37.247Z,9.82
2022-10-07T15:38:05.291Z,9.80
2022-10-07T15:40:33.491Z,5.68
2022-10-07T15:43:02.282Z,6.57
2022-10-07T15:45:30.295Z,9.00
2022-10-07T15:50:39.108Z,7.07
2022-10-07T15:53:07.285Z,8.73
2022-10-07T15:55:37.637Z,7.63
2022-10-07T15:58:05.554Z,6.40
2022-10-07T16:00:33.646Z,5.85
2022-10-07T16:03:04.081Z,6.25
2022-10-07T16:05:36.688Z,6.78
2022-10-07T16:08:04.944Z,9.50
2022-10-07T16:10:37.591Z,8.85
2022-10-07T16:13:05.506Z,12.80
2022-10-07T16:15:33.552Z,6.80
2022-10-07T16:18:02.350Z,8.05
2022-10-07T16:20:33.332Z,7.28
2022-10-07T16:23:01.412Z,9.60
2022-10-07T16:25:29.320Z,4.60
2022-10-07T16:28:15.983Z,6.65
2022-10-07T16:30:51.154Z,8.77
2022-10-07T16:33:22.851Z,8.18
2022-10-07T16:35:50.962Z,12.77
2022-10-07T16:38:24.563Z,9.95
2022-10-07T16:40:54.060Z,9.00
2022-10-07T16:43:22.052Z,8.90
2022-10-07T16:45:51.383Z,6.85
2022-10-07T16:48:19.375Z,9.07
2022-10-07T16:50:48.829Z,14.43
2022-10-07T16:53:19.716Z,12.43
2022-10-07T16:55:50.583Z,13.27
2022-10-07T16:58:18.494Z,10.65
2022-10-07T17:00:46.528Z,9.85
2022-10-07T17:03:14.528Z,14.13
2022-10-07T17:05:42.462Z,12.38
2022-10-07T17:08:13.490Z,12.48
2022-10-07T17:10:42.411Z,12.95
2022-10-07T17:13:10.632Z,11.20
2022-10-07T17:15:41.071Z,11.48
2022-10-07T17:18:09.008Z,11.43
2022-10-07T17:20:36.976Z,10.73
2022-10-07T17:23:05.312Z,11.27
2022-10-07T17:25:33.899Z,9.65
2022-10-07T17:28:01.823Z,10.05
2022-10-07T17:30:32.274Z,10.25
2022-10-07T17:33:01.043Z,10.05
2022-10-07T17:35:35.757Z,17.05
2022-10-07T17:38:06.879Z,10.27
2022-10-07T17:40:38.226Z,9.88
2022-10-07T17:45:44.546Z,12.43
2022-10-07T17:48:13.740Z,12.70
2022-10-07T17:50:41.656Z,10.13
2022-10-07T17:53:09.508Z,19.35
2022-10-07T17:55:37.391Z,11.43
2022-10-07T17:58:05.303Z,10.30
2022-10-07T18:00:33.316Z,9.00
2022-10-07T18:03:02.125Z,10.38
2022-10-07T18:05:30.065Z,12.10
2022-10-07T18:08:01.745Z,10.48
2022-10-07T18:10:30.709Z,7.90
2022-10-07T18:13:17.341Z,8.07
2022-10-07T18:15:45.313Z,10.00
2022-10-07T18:18:13.155Z,11.50
2022-10-07T18:20:42.609Z,5.95
2022-10-07T18:23:10.500Z,8.23
2022-10-07T18:25:39.967Z,10.10
2022-10-07T18:28:08.543Z,13.02
2022-10-07T18:30:36.587Z,7.47
2022-10-07T18:33:04.643Z,9.63
2022-10-07T18:35:32.597Z,10.43
2022-10-07T18:38:00.570Z,8.13
2022-10-07T18:40:28.596Z,14.27
2022-10-07T18:42:56.491Z,8.07
2022-10-07T18:45:24.613Z,13.45
2022-10-07T18:47:52.517Z,12.02
2022-10-07T18:50:20.436Z,11.60
2022-10-07T18:52:48.375Z,13.02
2022-10-07T18:55:16.607Z,12.98
2022-10-07T18:57:44.661Z,10.80
2022-10-07T19:00:13.482Z,6.45
2022-10-07T19:02:41.407Z,7.43
2022-10-07T19:05:09.449Z,8.45
2022-10-07T19:07:40.141Z,10.38
2022-10-07T19:10:14.650Z,8.20
2022-10-07T19:13:01.306Z,10.15
2022-10-07T19:15:29.211Z,12.07
2022-10-07T19:17:57.547Z,9.18
2022-10-07T19:20:25.471Z,10.07
2022-10-07T19:22:53.317Z,10.13
2022-10-07T19:25:40.037Z,12.45
2022-10-07T19:28:08.108Z,14.27
2022-10-07T19:30:35.980Z,7.78
2022-10-07T19:33:04.071Z,13.13
2022-10-07T19:35:34.197Z,12.45
2022-10-07T19:38:02.118Z,15.07
2022-10-07T19:40:30.658Z,13.52
2022-10-07T19:42:58.703Z,13.95
2022-10-07T19:45:26.653Z,12.90
2022-10-07T19:47:55.216Z,12.35
2022-10-07T19:50:24.060Z,12.50
2022-10-07T19:52:54.378Z,13.95
2022-10-07T19:55:26.356Z,13.80
2022-10-07T19:57:57.930Z,8.43
2022-10-07T20:03:09.967Z,14.80
2022-10-07T20:05:43.326Z,14.10
2022-10-07T20:08:11.240Z,14.02
2022-10-07T20:10:39.428Z,17.27
2022-10-07T20:13:07.440Z,14.68
2022-10-07T20:15:35.566Z,15.85
2022-10-07T20:18:04.988Z,15.63
2022-10-07T20:20:33.203Z,12.00
2022-10-07T20:23:02.159Z,14.25
2022-10-07T20:25:30.041Z,19.23
2022-10-07T20:27:57.937Z,13.20
2022-10-07T20:30:25.914Z,14.38
2022-10-07T20:32:54.331Z,15.60
2022-10-07T20:35:22.194Z,17.08
2022-10-07T20:37:50.085Z,19.63
2022-10-07T20:40:36.999Z,18.45
2022-10-07T20:43:04.940Z,18.52
2022-10-07T20:45:52.780Z,18.90
2022-10-07T20:48:20.742Z,13.38
2022-10-07T20:50:48.865Z,13.60
2022-10-07T20:53:16.799Z,15.23
2022-10-07T20:55:46.018Z,14.38
2022-10-07T20:58:14.800Z,16.90
2022-10-07T21:00:42.655Z,20.13
2022-10-07T21:03:10.625Z,16.88
2022-10-07T21:05:39.478Z,17.15
2022-10-07T21:08:07.838Z,15.20
2022-10-07T21:10:35.788Z,19.52
2022-10-07T21:13:03.749Z,20.25
2022-10-07T21:15:31.713Z,18.02
2022-10-07T21:17:59.576Z,19.20
2022-10-07T21:20:27.460Z,16.45
2022-10-07T21:22:56.642Z,15.93
2022-10-07T21:25:24.526Z,18.13
2022-10-07T21:27:52.418Z,16.83
2022-10-07T21:30:20.390Z,18.73
2022-10-07T21:32:51.098Z,15.57
2022-10-07T21:35:19.001Z,18.33
2022-10-07T21:37:47.362Z,15.65
2022-10-07T21:40:15.305Z,17.15
2022-10-07T21:42:43.227Z,17.25
2022-10-07T21:45:11.472Z,15.07
2022-10-07T21:47:39.493Z,18.42
2022-10-07T21:50:08.707Z,14.77
2022-10-07T21:52:36.560Z,19.88
2022-10-07T21:55:04.704Z,21.48
2022-10-07T21:57:32.574Z,17.38
2022-10-07T22:00:00.494Z,19.33
2022-10-07T22:02:30.242Z,18.63
2022-10-07T22:04:58.480Z,17.52
2022-10-07T22:07:44.862Z,16.35
2022-10-07T22:10:16.375Z,15.88
2022-10-07T22:15:18.114Z,26.85
2022-10-07T22:17:45.999Z,24.00
2022-10-07T22:20:14.462Z,16.08
2022-10-07T22:22:43.501Z,18.45
2022-10-07T22:25:11.653Z,17.02
2022-10-07T22:27:39.612Z,18.90
2022-10-07T22:30:10.160Z,21.38
2022-10-07T22:32:38.133Z,22.30
2022-10-07T22:35:25.183Z,21.00
2022-10-07T22:37:53.082Z,17.90
2022-10-07T22:40:20.969Z,24.42
2022-10-07T22:42:49.284Z,19.02
2022-10-07T22:45:18.303Z,18.60
2022-10-07T22:47:46.432Z,20.58
2022-10-07T22:50:16.619Z,22.00
2022-10-07T22:52:44.779Z,16.60
2022-10-07T22:55:12.918Z,18.85
2022-10-07T22:57:40.927Z,19.73
2022-10-07T23:00:09.603Z,19.40
2022-10-07T23:02:37.788Z,18.70
2022-10-07T23:05:06.136Z,19.70
2022-10-07T23:07:33.990Z,18.63
2022-10-07T23:10:02.167Z,18.90
2022-10-07T23:12:30.119Z,17.63
2022-10-07T23:14:57.984Z,25.55
2022-10-07T23:17:25.822Z,19.95
2022-10-07T23:19:53.657Z,19.95
2022-10-07T23:22:22.997Z,18.92
2022-10-07T23:24:50.830Z,25.38
2022-10-07T23:27:18.794Z,21.77
2022-10-07T23:29:49.273Z,22.45
2022-10-07T23:32:17.163Z,19.02
2022-10-07T23:34:47.191Z,19.15
2022-10-07T23:37:19.468Z,21.55
2022-10-07T23:39:50.411Z,20.70
2022-10-07T23:42:18.301Z,25.42
2022-10-07T23:44:46.125Z,23.58
2022-10-07T23:47:13.999Z,27.52
2022-10-07T23:49:41.846Z,25.23
2022-10-07T23:52:09.811Z,23.33
2022-10-07T23:54:37.666Z,20.75
2022-10-07T23:57:05.571Z,19.63
2022-10-07T23:59:33.601Z,23.48
